createdAt,value
2018-01-31T01:52:31.002Z,100988.30
2018-01-31T01:55:01.835Z,100989.93
2018-01-31T01:57:32.770Z,100975.59
2018-01-31T02:00:03.682Z,100982.14
2018-01-31T02:02:34.614Z,100976.78
2018-01-31T02:05:04.791Z,100969.86
2018-01-31T02:07:35.748Z,100970.29
2018-01-31T02:10:07.064Z,100970.47
2018-01-31T02:12:38.616Z,100966.23
2018-01-31T02:15:09.039Z,100957.42
2018-01-31T02:17:40.530Z,100956.28
2018-01-31T02:20:11.213Z,100958.15
2018-01-31T02:22:42.079Z,100961.21
2018-01-31T02:25:12.878Z,100956.03
2018-01-31T02:27:43.411Z,100959.25
2018-01-31T02:30:14.300Z,100961.27
2018-01-31T02:32:44.983Z,100962.14
2018-01-31T02:35:15.521Z,100955.22
2018-01-31T02:37:45.942Z,100949.94
2018-01-31T02:40:17.629Z,100946.61
2018-01-31T02:42:48.213Z,100934.39
2018-01-31T02:45:18.956Z,100933.47
2018-01-31T02:47:49.980Z,100928.78
2018-01-31T02:50:20.863Z,100926.22
2018-01-31T02:52:51.419Z,100929.59
2018-01-31T02:55:22.003Z,100929.52
2018-01-31T02:57:52.936Z,100924.20
2018-01-31T03:00:23.799Z,100913.47
2018-01-31T03:02:55.193Z,100906.55
2018-01-31T03:05:26.119Z,100906.48
2018-01-31T03:07:56.508Z,100898.53
2018-01-31T03:10:27.112Z,100899.95
2018-01-31T03:12:58.027Z,100900.99
2018-01-31T03:15:28.507Z,100901.81
2018-01-31T03:17:59.991Z,100896.96
2018-01-31T03:20:31.793Z,100889.77
2018-01-31T03:23:02.607Z,100887.27
2018-01-31T03:25:33.294Z,100887.19
2018-01-31T03:28:04.076Z,100878.33
2018-01-31T03:30:35.024Z,100869.83
2018-01-31T03:33:06.430Z,100869.07
2018-01-31T03:35:37.260Z,100861.35
2018-01-31T03:38:07.504Z,100865.80
2018-01-31T03:40:37.995Z,100853.59
2018-01-31T03:43:07.867Z,100845.75
2018-01-31T03:45:39.039Z,100845.48
2018-01-31T03:48:09.712Z,100840.19
2018-01-31T03:50:40.400Z,100830.27
2018-01-31T03:53:11.199Z,100827.34
2018-01-31T03:55:41.620Z,100820.73
2018-01-31T03:58:12.271Z,100815.63
2018-01-31T04:00:43.946Z,100813.81
2018-01-31T04:03:14.906Z,100808.03
2018-01-31T04:05:45.749Z,100801.48
2018-01-31T04:08:17.510Z,100804.91
2018-01-31T04:10:47.967Z,100813.76
2018-01-31T04:13:17.912Z,100808.70
2018-01-31T04:15:48.704Z,100809.69
2018-01-31T04:18:19.390Z,100805.98
2018-01-31T04:20:50.280Z,100797.48
2018-01-31T04:23:21.243Z,100781.78
2018-01-31T04:25:52.518Z,100782.52
2018-01-31T04:28:23.254Z,100769.50
2018-01-31T04:30:53.582Z,100769.05
2018-01-31T04:33:24.426Z,100776.59
2018-01-31T04:35:55.157Z,100767.55
2018-01-31T04:38:24.389Z,100764.27
2018-01-31T04:40:55.741Z,100763.30
2018-01-31T04:43:26.565Z,100762.06
2018-01-31T04:45:57.412Z,100754.97
2018-01-31T04:48:29.350Z,100751.91
2018-01-31T04:51:00.958Z,100749.53
2018-01-31T04:53:31.650Z,100754.52
2018-01-31T04:56:03.227Z,100754.89
2018-01-31T04:58:33.942Z,100749.89
2018-01-31T05:01:03.480Z,100743.77
2018-01-31T05:03:33.858Z,100743.92
2018-01-31T05:06:05.523Z,100734.63
2018-01-31T05:08:36.234Z,100731.32
2018-01-31T05:11:06.607Z,100728.20
2018-01-31T05:13:37.688Z,100730.30
2018-01-31T05:16:07.808Z,100727.59
2018-01-31T05:18:40.307Z,100718.83
2018-01-31T05:21:11.792Z,100709.78
2018-01-31T05:23:42.207Z,100707.71
2018-01-31T05:26:12.879Z,100713.02
2018-01-31T05:28:43.791Z,100712.42
2018-01-31T05:31:16.472Z,100713.74
2018-01-31T05:33:47.301Z,100718.80
2018-01-31T05:36:16.531Z,100711.01
2018-01-31T05:38:46.947Z,100706.16
2018-01-31T05:41:19.067Z,100704.02
2018-01-31T05:43:49.838Z,100699.19
2018-01-31T05:46:20.385Z,100688.70
2018-01-31T05:48:51.018Z,100684.03
2018-01-31T05:51:21.883Z,100676.16
2018-01-31T05:53:52.816Z,100673.41
2018-01-31T05:56:24.185Z,100669.87
2018-01-31T05:58:54.928Z,100676.86
2018-01-31T06:01:25.923Z,100671.48
2018-01-31T06:03:56.863Z,100672.64
2018-01-31T06:06:27.698Z,100668.19
2018-01-31T06:08:58.600Z,100668.44
2018-01-31T06:11:29.155Z,100663.59
2018-01-31T06:14:00.055Z,100664.50
2018-01-31T06:16:31.573Z,100656.22
2018-01-31T06:19:01.407Z,100654.11
2018-01-31T06:21:31.955Z,100654.06
2018-01-31T06:24:02.925Z,100648.89
2018-01-31T06:26:33.406Z,100649.14
2018-01-31T06:29:03.937Z,100655.81
2018-01-31T06:31:34.818Z,100648.35
2018-01-31T06:34:05.748Z,100649.31
2018-01-31T06:36:36.593Z,100651.60
2018-01-31T06:39:07.544Z,100638.60
2018-01-31T06:41:38.503Z,100646.20
2018-01-31T06:44:09.924Z,100649.56
2018-01-31T06:46:41.223Z,100648.66
2018-01-31T06:49:13.856Z,100648.20
2018-01-31T06:51:44.500Z,100637.89
2018-01-31T06:54:13.791Z,100641.31
2018-01-31T06:56:44.322Z,100632.97
2018-01-31T06:59:14.204Z,100623.11
2018-01-31T07:01:44.899Z,100630.22
2018-01-31T07:04:15.848Z,100620.37
2018-01-31T07:06:47.069Z,100607.17
2018-01-31T07:09:17.879Z,100608.39
2018-01-31T07:11:48.748Z,100608.86
2018-01-31T07:14:19.709Z,100608.56
2018-01-31T07:16:51.083Z,100601.58
2018-01-31T07:19:21.963Z,100600.47
2018-01-31T07:21:52.604Z,100596.91
2018-01-31T07:24:23.614Z,100589.25
2018-01-31T07:26:55.035Z,100583.73
2018-01-31T07:29:26.006Z,100574.31
2018-01-31T07:31:56.858Z,100580.73
2018-01-31T07:34:27.792Z,100580.73
2018-01-31T07:36:59.791Z,100576.90
2018-01-31T07:39:30.451Z,100571.61
2018-01-31T07:42:00.871Z,100571.17
2018-01-31T07:44:32.149Z,100558.97
2018-01-31T07:47:03.062Z,100559.02
2018-01-31T07:49:33.961Z,100553.16
2018-01-31T07:52:04.416Z,100547.06
2018-01-31T07:54:36.081Z,100533.89
2018-01-31T07:57:06.990Z,100534.56
2018-01-31T07:59:37.915Z,100531.89
2018-01-31T08:02:08.833Z,100532.11
2018-01-31T08:04:39.758Z,100534.81
2018-01-31T08:07:10.648Z,100522.23
2018-01-31T08:09:41.584Z,100519.20
2018-01-31T08:12:12.937Z,100511.28
2018-01-31T08:14:44.453Z,100495.91
2018-01-31T08:17:14.966Z,100493.88
2018-01-31T08:19:45.899Z,100486.08
2018-01-31T08:22:16.791Z,100476.14
2018-01-31T08:24:47.058Z,100471.21
2018-01-31T08:27:17.711Z,100470.57
2018-01-31T08:29:48.603Z,100462.70
2018-01-31T08:32:18.880Z,100458.23
2018-01-31T08:34:50.415Z,100459.23
2018-01-31T08:37:21.956Z,100453.05
2018-01-31T08:39:52.886Z,100446.73
2018-01-31T08:42:24.095Z,100441.55
2018-01-31T08:44:55.120Z,100438.98
2018-01-31T08:47:25.829Z,100423.34
2018-01-31T08:49:56.498Z,100415.42
2018-01-31T08:52:26.902Z,100415.93
2018-01-31T08:54:57.920Z,100409.63
2018-01-31T08:57:28.471Z,100402.34
2018-01-31T08:59:59.151Z,100392.41
2018-01-31T09:02:30.419Z,100385.53
2018-01-31T09:05:01.311Z,100379.03
2018-01-31T09:07:31.835Z,100378.38
2018-01-31T09:10:02.830Z,100369.63
2018-01-31T09:12:33.747Z,100364.41
2018-01-31T09:15:04.298Z,100370.16
2018-01-31T09:17:34.999Z,100358.00
2018-01-31T09:20:05.515Z,100357.02
2018-01-31T09:22:36.560Z,100349.84
2018-01-31T09:25:08.059Z,100339.75
2018-01-31T09:27:38.770Z,100345.18
2018-01-31T09:30:08.803Z,100347.20
2018-01-31T09:32:39.899Z,100348.64
2018-01-31T09:35:10.989Z,100345.66
2018-01-31T09:37:41.403Z,100357.08
2018-01-31T09:40:12.918Z,100343.99
2018-01-31T09:42:43.424Z,100338.30
2018-01-31T09:45:13.996Z,100332.91
2018-01-31T09:47:44.897Z,100333.88
2018-01-31T09:50:15.831Z,100331.81
2018-01-31T09:52:46.695Z,100326.49
2018-01-31T09:55:17.247Z,100323.08
2018-01-31T09:57:48.180Z,100307.92
2018-01-31T10:00:19.053Z,100308.22
2018-01-31T10:02:50.211Z,100295.23
2018-01-31T10:05:20.874Z,100282.81
2018-01-31T10:07:51.729Z,100288.43
2018-01-31T10:10:23.128Z,100284.27
2018-01-31T10:12:53.475Z,100278.31
2018-01-31T10:15:24.115Z,100263.58
2018-01-31T10:17:54.961Z,100261.22
2018-01-31T10:20:25.903Z,100251.91
2018-01-31T10:22:56.593Z,100246.06
2018-01-31T10:25:28.054Z,100233.43
2018-01-31T10:27:58.899Z,100233.23
2018-01-31T10:30:29.936Z,100225.78
2018-01-31T10:33:00.875Z,100209.80
2018-01-31T10:35:31.396Z,100215.31
2018-01-31T10:38:01.887Z,100216.39
2018-01-31T10:40:32.814Z,100199.69
2018-01-31T10:43:03.695Z,100198.02
2018-01-31T10:45:34.243Z,100173.49
2018-01-31T10:48:04.976Z,100167.52
2018-01-31T10:50:36.056Z,100156.55
2018-01-31T10:53:06.912Z,100148.80
2018-01-31T10:58:08.817Z,100133.77
2018-01-31T11:00:37.294Z,100138.11
2018-01-31T11:03:07.481Z,100126.39
2018-01-31T11:05:38.353Z,100119.73
2018-01-31T11:08:08.467Z,100112.44
2018-01-31T11:10:38.433Z,100100.02
2018-01-31T11:13:07.644Z,100099.33
2018-01-31T11:15:36.801Z,100095.35
2018-01-31T11:18:05.981Z,100081.83
2018-01-31T11:20:35.112Z,100083.47
2018-01-31T11:23:03.487Z,100069.55
2018-01-31T11:25:32.408Z,100056.93
2018-01-31T11:28:01.231Z,100053.19
2018-01-31T11:30:30.112Z,100040.77
2018-01-31T11:32:59.605Z,100027.31
2018-01-31T11:35:28.749Z,100020.36
2018-01-31T11:37:57.892Z,100035.93
2018-01-31T11:40:27.054Z,100019.89
2018-01-31T11:42:55.975Z,100013.94
2018-01-31T11:45:25.047Z,100008.23
2018-01-31T11:47:53.914Z,100010.19
2018-01-31T11:50:22.955Z,100002.78
2018-01-31T11:52:52.033Z,99995.69
2018-01-31T11:55:20.923Z,99992.36
2018-01-31T11:57:49.714Z,99979.01
2018-01-31T12:00:18.255Z,99982.46
2018-01-31T12:02:47.155Z,99976.20
2018-01-31T12:05:15.943Z,99966.60
2018-01-31T12:07:44.770Z,99955.98
2018-01-31T12:10:13.048Z,99946.93
2018-01-31T12:12:50.418Z,99956.23
2018-01-31T12:15:24.722Z,99938.34
2018-01-31T12:17:53.798Z,99934.41
2018-01-31T12:23:42.079Z,99917.02
2018-01-31T12:29:27.781Z,99909.86
2018-01-31T12:32:07.847Z,99903.80
2018-01-31T12:34:47.679Z,99901.16
2018-01-31T12:40:36.878Z,99892.97
2018-01-31T12:43:04.783Z,99875.57
2018-01-31T12:45:32.616Z,99879.28
2018-01-31T12:48:02.499Z,99871.77
2018-01-31T12:50:42.364Z,99861.23
2018-01-31T12:53:22.274Z,99869.04
2018-01-31T12:56:02.145Z,99843.79
2018-01-31T12:58:42.436Z,99853.99
2018-01-31T13:01:22.590Z,99843.89
2018-01-31T13:04:04.436Z,99844.62
2018-01-31T13:06:44.698Z,99841.17
2018-01-31T13:09:18.843Z,99845.53
2018-01-31T13:11:58.903Z,99839.39
2018-01-31T13:14:38.768Z,99838.69
2018-01-31T13:17:18.879Z,99818.20
2018-01-31T13:19:58.691Z,99815.03
2018-01-31T13:22:44.084Z,99811.97
2018-01-31T13:25:24.385Z,99801.44
2018-01-31T13:28:09.724Z,99804.73
2018-01-31T13:33:51.747Z,99789.22
2018-01-31T13:36:31.906Z,99791.06
2018-01-31T13:39:14.742Z,99776.80
2018-01-31T13:41:54.900Z,99775.39
2018-01-31T13:44:35.569Z,99761.68
2018-01-31T13:47:15.548Z,99751.97
2018-01-31T13:49:55.410Z,99745.66
2018-01-31T13:52:35.014Z,99750.02
2018-01-31T13:55:14.916Z,99736.45
2018-01-31T13:57:54.848Z,99732.19
2018-01-31T14:00:34.977Z,99728.41
2018-01-31T14:03:14.886Z,99723.27
2018-01-31T14:05:54.738Z,99718.63
2018-01-31T14:08:34.519Z,99718.59
2018-01-31T14:11:14.337Z,99713.27
2018-01-31T14:13:54.093Z,99708.88
2018-01-31T14:16:34.012Z,99703.86
2018-01-31T14:19:13.717Z,99704.20
2018-01-31T14:21:55.448Z,99702.15
2018-01-31T14:27:38.422Z,99678.91
2018-01-31T14:30:18.264Z,99682.28
2018-01-31T14:32:58.198Z,99680.70
2018-01-31T14:38:29.332Z,99673.51
2018-01-31T14:40:57.454Z,99669.52
2018-01-31T14:43:25.412Z,99664.66
2018-01-31T14:45:53.006Z,99660.71
2018-01-31T14:48:20.551Z,99651.98
2018-01-31T14:50:48.499Z,99648.25
2018-01-31T14:53:16.414Z,99642.28
2018-01-31T14:55:43.961Z,99632.58
2018-01-31T14:58:12.015Z,99630.20
2018-01-31T15:00:39.574Z,99621.27
2018-01-31T15:03:07.114Z,99622.16
2018-01-31T15:05:34.775Z,99608.75
2018-01-31T15:08:02.688Z,99606.97
2018-01-31T15:10:30.339Z,99599.39
2018-01-31T15:12:57.999Z,99596.49
2018-01-31T15:15:25.520Z,99587.27
2018-01-31T15:17:53.330Z,99587.78
2018-01-31T15:20:20.914Z,99585.09
2018-01-31T15:22:48.521Z,99581.34
2018-01-31T15:25:16.352Z,99573.13
2018-01-31T15:27:43.942Z,99564.54
2018-01-31T15:30:11.495Z,99557.48
2018-01-31T15:32:39.410Z,99555.56
2018-01-31T15:35:07.301Z,99540.19
2018-01-31T15:37:35.174Z,99550.23
2018-01-31T15:40:02.691Z,99551.48
2018-01-31T15:42:30.360Z,99546.88
2018-01-31T15:44:58.224Z,99558.97
2018-01-31T15:47:26.110Z,99557.27
2018-01-31T15:49:53.946Z,99549.34
2018-01-31T15:52:22.030Z,99544.16
2018-01-31T15:54:51.261Z,99539.78
2018-01-31T15:57:20.294Z,99532.23
2018-01-31T15:59:50.634Z,99527.27
2018-01-31T16:02:20.771Z,99515.42
2018-01-31T16:04:50.291Z,99510.34
2018-01-31T16:07:18.273Z,99520.80
2018-01-31T16:09:46.098Z,99516.41
2018-01-31T16:12:13.680Z,99502.17
2018-01-31T16:14:41.526Z,99497.37
2018-01-31T16:17:10.374Z,99503.52
2018-01-31T16:19:50.336Z,99501.22
2018-01-31T16:22:19.108Z,99497.99
2018-01-31T16:24:47.923Z,99494.62
2018-01-31T16:27:25.259Z,99494.51
2018-01-31T16:30:13.526Z,99491.80
2018-01-31T16:32:52.828Z,99481.38
2018-01-31T16:35:21.912Z,99479.84
2018-01-31T16:37:50.831Z,99476.61
2018-01-31T16:40:20.226Z,99464.69
2018-01-31T16:42:49.395Z,99462.44
2018-01-31T16:45:18.693Z,99454.55
2018-01-31T16:47:47.914Z,99453.82
2018-01-31T16:50:17.142Z,99445.84
2018-01-31T16:52:47.674Z,99449.44
2018-01-31T16:55:16.984Z,99440.95
2018-01-31T16:57:46.586Z,99449.52
2018-01-31T17:00:15.451Z,99462.72
2018-01-31T17:02:45.210Z,99457.19
2018-01-31T17:05:15.577Z,99468.05
2018-01-31T17:07:45.640Z,99462.27
2018-01-31T17:10:16.027Z,99463.59
2018-01-31T17:12:46.555Z,99461.82
2018-01-31T17:15:17.593Z,99438.77
2018-01-31T17:17:48.494Z,99444.44
2018-01-31T17:20:20.019Z,99439.08
2018-01-31T17:22:50.856Z,99436.69
2018-01-31T17:25:21.760Z,99433.69
2018-01-31T17:27:52.688Z,99440.03
2018-01-31T17:30:23.297Z,99427.48
2018-01-31T17:32:53.878Z,99427.54
2018-01-31T17:35:25.199Z,99429.59
2018-01-31T17:37:55.866Z,99418.36
2018-01-31T17:40:26.841Z,99418.00
2018-01-31T17:42:57.915Z,99409.66
2018-01-31T17:45:29.506Z,99412.05
2018-01-31T17:47:59.331Z,99410.59
2018-01-31T17:50:29.696Z,99400.88
2018-01-31T17:53:01.192Z,99390.41
2018-01-31T17:55:32.088Z,99377.97
2018-01-31T17:58:03.007Z,99380.53
2018-01-31T18:00:34.311Z,99369.42
2018-01-31T18:03:04.992Z,99363.52
2018-01-31T18:05:35.536Z,99360.59
2018-01-31T18:08:05.884Z,99355.11
2018-01-31T18:10:36.775Z,99349.30
2018-01-31T18:13:07.632Z,99337.66
2018-01-31T18:15:38.939Z,99324.50
2018-01-31T18:18:09.807Z,99322.97
2018-01-31T18:20:40.666Z,99311.73
2018-01-31T18:23:11.561Z,99305.59
2018-01-31T18:25:42.852Z,99312.39
2018-01-31T18:28:13.664Z,99304.48
2018-01-31T18:30:44.708Z,99305.73
2018-01-31T18:33:15.165Z,99293.58
2018-01-31T18:35:45.908Z,99290.33
2018-01-31T18:38:16.751Z,99286.52
2018-01-31T18:40:47.613Z,99275.59
2018-01-31T18:43:18.506Z,99262.25
2018-01-31T18:45:49.852Z,99268.02
2018-01-31T18:48:20.642Z,99273.44
2018-01-31T18:50:50.508Z,99265.69
2018-01-31T18:53:21.915Z,99264.31
2018-01-31T18:55:52.794Z,99255.89
2018-01-31T18:58:24.714Z,99254.36
2018-01-31T19:00:55.508Z,99242.30
2018-01-31T19:03:25.158Z,99253.60
2018-01-31T19:05:55.850Z,99241.74
2018-01-31T19:08:26.752Z,99241.88
2018-01-31T19:10:57.615Z,99230.68
2018-01-31T19:13:28.835Z,99229.34
2018-01-31T19:15:59.719Z,99221.05
2018-01-31T19:18:30.935Z,99224.58
2018-01-31T19:21:01.867Z,99225.73
2018-01-31T19:23:32.429Z,99222.36
2018-01-31T19:26:03.060Z,99219.97
2018-01-31T19:28:33.864Z,99219.22
2018-01-31T19:31:05.038Z,99220.45
2018-01-31T19:33:35.756Z,99208.75
2018-01-31T19:36:06.863Z,99199.12
2018-01-31T19:38:37.696Z,99199.82
2018-01-31T19:41:08.807Z,99190.38
2018-01-31T19:43:39.623Z,99196.44
2018-01-31T19:46:10.717Z,99179.06
2018-01-31T19:48:41.554Z,99176.42
2018-01-31T19:51:12.523Z,99179.18
2018-01-31T19:53:43.931Z,99176.41
2018-01-31T19:56:14.859Z,99166.93
2018-01-31T19:58:45.739Z,99169.15
2018-01-31T20:01:16.310Z,99169.69
2018-01-31T20:03:46.827Z,99167.06
2018-01-31T20:06:17.870Z,99157.04
2018-01-31T20:08:48.691Z,99167.14
2018-01-31T20:11:19.564Z,99161.75
2018-01-31T20:13:50.915Z,99162.73
2018-01-31T20:16:21.806Z,99148.75
2018-01-31T20:18:52.583Z,99139.23
2018-01-31T20:21:23.550Z,99142.05
2018-01-31T20:23:54.939Z,99146.94
2018-01-31T20:26:25.919Z,99146.02
2018-01-31T20:28:56.831Z,99123.28
2018-01-31T20:31:27.781Z,99106.41
2018-01-31T20:33:58.678Z,99106.06
2018-01-31T20:36:29.566Z,99099.28
2018-01-31T20:39:00.818Z,99090.38
2018-01-31T20:41:31.130Z,99085.36
2018-01-31T20:44:01.685Z,99090.39
2018-01-31T20:46:32.514Z,99090.58
2018-01-31T20:49:03.149Z,99086.84
2018-01-31T20:51:34.187Z,99081.64
2018-01-31T20:54:05.172Z,99079.41
2018-01-31T20:56:35.758Z,99075.86
2018-01-31T20:59:06.395Z,99074.66
2018-01-31T21:01:37.191Z,99063.63
2018-01-31T21:04:08.491Z,99067.98
2018-01-31T21:06:39.778Z,99055.83
2018-01-31T21:09:12.314Z,99056.76
2018-01-31T21:11:43.844Z,99055.13
2018-01-31T21:14:14.880Z,99049.34
2018-01-31T21:16:45.435Z,99062.51
2018-01-31T21:19:15.475Z,99057.13
2018-01-31T21:21:45.793Z,99051.69
2018-01-31T21:24:16.638Z,99047.77
2018-01-31T21:26:47.623Z,99041.05
2018-01-31T21:29:19.162Z,99039.48
2018-01-31T21:31:49.921Z,99044.77
2018-01-31T21:34:20.830Z,99041.77
2018-01-31T21:36:51.296Z,99044.01
2018-01-31T21:39:22.875Z,99031.75
2018-01-31T21:41:53.965Z,99019.63
2018-01-31T21:44:24.437Z,99022.30
2018-01-31T21:46:55.295Z,99029.38
2018-01-31T21:49:25.330Z,99032.44
2018-01-31T21:51:56.324Z,99020.25
2018-01-31T21:54:27.184Z,99014.63
2018-01-31T21:56:57.575Z,99007.98
2018-01-31T21:59:28.335Z,99008.36
2018-01-31T22:01:58.895Z,98990.11
2018-01-31T22:04:29.784Z,98991.83
2018-01-31T22:07:00.689Z,98977.53
2018-01-31T22:09:31.539Z,98971.44
2018-01-31T22:12:02.915Z,98967.36
2018-01-31T22:14:34.579Z,98966.30
2018-01-31T22:17:05.071Z,98953.81
2018-01-31T22:19:35.940Z,98945.91
2018-01-31T22:22:06.536Z,98941.31
2018-01-31T22:24:37.907Z,98938.22
2018-01-31T22:27:08.847Z,98934.03
2018-01-31T22:29:39.705Z,98922.30
2018-01-31T22:32:10.612Z,98928.95
2018-01-31T22:34:41.889Z,98923.45
2018-01-31T22:37:12.817Z,98925.86
2018-01-31T22:39:43.339Z,98914.15
2018-01-31T22:42:14.217Z,98905.27
2018-01-31T22:44:44.843Z,98896.13
2018-01-31T22:47:15.802Z,98894.91
2018-01-31T22:49:46.279Z,98900.02
2018-01-31T22:52:16.882Z,98899.34
2018-01-31T22:54:47.330Z,98902.28
2018-01-31T22:57:17.946Z,98909.86
2018-01-31T22:59:48.779Z,98917.25
2018-01-31T23:02:19.685Z,98930.14
2018-01-31T23:04:50.538Z,98926.46
2018-01-31T23:07:22.217Z,98924.55
2018-01-31T23:09:52.855Z,98926.37
2018-01-31T23:12:24.836Z,98922.66
2018-01-31T23:14:55.259Z,98910.70
2018-01-31T23:17:31.360Z,98915.49
2018-01-31T23:20:00.496Z,98919.78
2018-01-31T23:22:29.612Z,98915.31
2018-01-31T23:24:59.228Z,98901.57
2018-01-31T23:27:29.847Z,98896.44
2018-01-31T23:29:59.723Z,98893.28
2018-01-31T23:32:33.284Z,98901.09
2018-01-31T23:35:02.813Z,98890.14
2018-01-31T23:37:33.336Z,98886.92
2018-01-31T23:40:03.784Z,98887.67
2018-01-31T23:42:34.219Z,98880.25
2018-01-31T23:45:05.076Z,98881.73
2018-01-31T23:47:35.832Z,98876.23
2018-01-31T23:50:06.752Z,98861.80
2018-01-31T23:52:37.599Z,98855.72
2018-01-31T23:55:08.598Z,98861.23
2018-01-31T23:57:39.890Z,98859.83
